Pilot L239 — OJ9461 — position and weather

sailwx.info

Track history (hours):
 
Tides and Currents Weather Stations Pressure Air Temp Water Temp Dewpoint Dewpoint Depression Visibility Wind Speed Wind Dir Waves Ship Positions

Pilot L239

Last reported at 2014-Jul-31 08:22 UTC. Time now 2014-Jul-31 11:35 UTC.
Position N 60°06' E 024°58'.

Length 15 m.

Type: Pilot. MMSI: 230035440.

Date/timePositionNaut miles runAvg speedWind from/ knotsBaromVisibWave heightAir tempDewpointWater temp
2014-Jul-31 08:22N 60°06' E 024°58'0 0.0
2014-Jul-31 07:05N 60°06' E 024°58'0 0.0
2014-Jul-31 06:23N 60°06' E 024°58'3 3.8
2014-Jul-31 05:34N 60°07' E 025°05'3 3.0
2014-Jul-31 04:29N 60°06' E 024°58'4 0.4
2014-Jul-30 18:33N 60°06' E 025°07'0 0.2
2014-Jul-30 17:34N 60°06' E 025°07'1 0.3
2014-Jul-30 15:19N 60°06' E 025°08'8 9.7
2014-Jul-30 14:32N 60°04' E 024°54'7 7.1
2014-Jul-30 13:33N 60°06' E 025°07'4 0.8
2014-Jul-30 08:24N 60°06' E 024°58'4 4.5
2014-Jul-30 07:33N 60°10' E 024°58'3 2.6
2014-Jul-30 06:34N 60°08' E 024°59'2 1.0
2014-Jul-30 04:32N 60°06' E 024°59'4 1.4
2014-Jul-30 01:32N 60°06' E 025°07'4 0.7
2014-Jul-29 19:17N 60°06' E 024°58'0 0.2
2014-Jul-29 16:18N 60°06' E 024°58'0 0.3
2014-Jul-29 15:25N 60°06' E 024°59'1 0.4
2014-Jul-29 12:34N 60°05' E 024°58'2 0.7
2014-Jul-29 10:04N 60°06' E 024°59'0 0.1
2014-Jul-29 06:21N 60°06' E 024°59'3 1.0
2014-Jul-29 03:33N 60°03' E 024°58'3 0.4
2014-Jul-28 20:32N 60°06' E 024°55'2 2.4
2014-Jul-28 19:31N 60°07' E 024°59'1 0.4
2014-Jul-28 18:12N 60°06' E 024°58'0 0.0
2014-Jul-28 17:33N 60°06' E 024°58'0 0.0
2014-Jul-28 16:24N 60°06' E 024°58'6 6.7
2014-Jul-28 15:33N 60°05' E 025°10'6 2.7
2014-Jul-28 13:30N 60°05' E 024°58'2 2.0
2014-Jul-28 12:32N 60°04' E 024°57'2 1.8
2014-Jul-28 11:34N 60°05' E 024°58'1 0.3
2014-Jul-28 07:05N 60°06' E 024°58'4 4.4
2014-Jul-28 06:13N 60°10' E 024°58'5 3.0
2014-Jul-28 04:34N 60°05' E 025°01'9 9.5
2014-Jul-28 03:34N 60°13' E 025°12'8 8.3
2014-Jul-28 02:33N 60°05' E 025°10'6 5.8
2014-Jul-28 01:33N 60°06' E 024°58'0 0.0
2014-Jul-28 00:32N 60°06' E 024°58'0 0.0
2014-Jul-27 23:33N 60°06' E 024°58'0 0.0
2014-Jul-27 19:33N 60°06' E 024°58'0 0.0
2014-Jul-27 18:33N 60°06' E 024°58'0 0.0
2014-Jul-27 17:29N 60°06' E 024°58'0 0.0
2014-Jul-27 16:33N 60°06' E 024°58'0 0.0
2014-Jul-27 15:33N 60°06' E 024°58'5 4.5
2014-Jul-27 14:33N 60°02' E 024°54'1 0.9
2014-Jul-27 13:33N 60°03' E 024°53'4 1.0
2014-Jul-27 09:33N 60°06' E 024°58'0 0.0
2014-Jul-27 08:09N 60°06' E 024°58'0 0.0
2014-Jul-27 05:04N 60°06' E 024°58'0 0.0
2014-Jul-27 04:32N 60°06' E 024°58'0 0.0
2014-Jul-27 03:33N 60°06' E 024°58'3 3.5
2014-Jul-27 02:34N 60°03' E 024°58'3 1.5
2014-Jul-27 00:11N 60°06' E 024°58'0 0.0
2014-Jul-26 23:30N 60°06' E 024°58'0 0.0
2014-Jul-26 21:21N 60°06' E 024°58'0 0.0
2014-Jul-26 20:34N 60°06' E 024°58'0 0.0
2014-Jul-26 19:05N 60°06' E 024°58'1 1.5
2014-Jul-26 18:33N 60°06' E 024°60'1 0.7
2014-Jul-26 17:18N 60°06' E 024°58'0 0.0
2014-Jul-26 15:31N 60°06' E 024°58'0 0.0
2014-Jul-26 14:33N 60°06' E 024°58'0 0.0
2014-Jul-26 13:33N 60°06' E 024°58'5 4.8
2014-Jul-26 12:33N 60°06' E 025°08'5 4.7
2014-Jul-26 11:33N 60°06' E 024°58'0 0.0
2014-Jul-26 10:33N 60°06' E 024°58'0 0.0
2014-Jul-26 09:33N 60°06' E 024°58'0 0.0
2014-Jul-26 08:33N 60°06' E 024°58'0 0.0
2014-Jul-26 07:28N 60°06' E 024°58'0 0.0
2014-Jul-26 06:31N 60°06' E 024°58'0 0.0
2014-Jul-26 04:19N 60°06' E 024°58'0 0.0
2014-Jul-26 03:22N 60°06' E 024°58'0 0.0
2014-Jul-26 02:29N 60°06' E 024°58'0 0.0
2014-Jul-26 01:20N 60°06' E 024°58'0 0.0
2014-Jul-25 23:07N 60°06' E 024°58'1 1.5
2014-Jul-25 22:32N 60°07' E 025°00'1 0.2
2014-Jul-25 18:31N 60°06' E 024°58'0 0.0
2014-Jul-25 17:26N 60°06' E 024°58'0 0.0
2014-Jul-25 16:32N 60°06' E 024°58'0 0.0
2014-Jul-25 15:33N 60°06' E 024°58'3 1.2
2014-Jul-25 13:28N 60°04' E 024°57'7 3.6
2014-Jul-25 11:33N 60°06' E 025°11'6 6.0
2014-Jul-25 10:33N 60°07' E 024°59'0 0.0
2014-Jul-25 07:30N 60°07' E 024°59'0 0.3
2014-Jul-25 06:05N 60°06' E 024°59'0 0.1
2014-Jul-25 04:22N 60°06' E 024°58'1 0.8
2014-Jul-25 03:33N 60°07' E 024°59'6 5.6
2014-Jul-25 02:33N 60°01' E 024°57'8 7.1
2014-Jul-25 01:30N 60°05' E 025°10'6 5.9
2014-Jul-25 00:30N 60°06' E 024°58'0 0.0
2014-Jul-24 23:30N 60°06' E 024°58'0 0.0
2014-Jul-24 22:33N 60°06' E 024°58'0 0.0
2014-Jul-24 21:33N 60°06' E 024°58'4 1.9
2014-Jul-24 19:33N 60°05' E 025°06'1 1.3
2014-Jul-24 18:33N 60°06' E 025°07'3 1.6
2014-Jul-24 16:33N 60°07' E 025°00'3 0.7
2014-Jul-24 12:33N 60°04' E 024°58'2 1.9
2014-Jul-24 11:33N 60°06' E 024°58'1 0.4
2014-Jul-24 10:16N 60°06' E 024°58'0 0.0
2014-Jul-24 06:11N 60°06' E 024°58'3 1.3
2014-Jul-24 03:33N 60°10' E 025°00'6 0.7
2014-Jul-23 19:33N 60°06' E 025°09'3 3.0
2014-Jul-23 18:33N 60°07' E 025°04'3 2.3
2014-Jul-23 17:26N 60°06' E 024°59'0 0.0
2014-Jul-23 15:25N 60°06' E 024°58'3 3.0
2014-Jul-23 14:34N 60°04' E 024°56'6 1.4
2014-Jul-23 10:33N 60°10' E 024°59'3 1.4
2014-Jul-23 08:18N 60°06' E 024°58'4 4.1
2014-Jul-23 07:21N 60°10' E 024°58'4 4.2
2014-Jul-23 06:23N 60°06' E 024°59'4 1.8
2014-Jul-23 04:21N 60°10' E 024°58'6 7.3
2014-Jul-23 03:32N 60°06' E 025°07'4 0.5
2014-Jul-22 18:20N 60°06' E 024°59'1 1.7
2014-Jul-22 17:33N 60°08' E 024°59'1 0.5
2014-Jul-22 14:33N 60°06' E 024°58'2 0.7
2014-Jul-22 11:33N 60°08' E 024°60'1 0.9
2014-Jul-22 10:33N 60°09' E 024°60'3 0.4
2014-Jul-22 04:12N 60°06' E 024°59'1 0.8
2014-Jul-22 03:33N 60°07' E 024°59'2 0.3
2014-Jul-21 19:33N 60°07' E 025°03'1 0.7
2014-Jul-21 18:08N 60°07' E 025°05'5 2.8
2014-Jul-21 16:17N 60°04' E 024°56'6 6.2
2014-Jul-21 15:20N 60°05' E 025°08'1 0.5
2014-Jul-21 13:33N 60°05' E 025°09'6 5.1
2014-Jul-21 12:27N 60°06' E 024°58'4 4.9
2014-Jul-21 11:33N 60°06' E 025°07'4 3.8
2014-Jul-21 10:24N 60°06' E 024°58'0 0.0
2014-Jul-21 09:30N 60°06' E 024°58'  
Track history (hours):
 
Tides and Currents Weather Stations Pressure Air Temp Water Temp Dewpoint Dewpoint Depression Visibility Wind Speed Wind Dir Waves Ship Positions

Pilot L239

Last reported at 2014-Jul-31 08:22 UTC. Time now 2014-Jul-31 11:35 UTC.
Position N 60°06' E 024°58'.

Length 15 m.

Type: Pilot. MMSI: 230035440.

Date/timePositionNaut miles runAvg speedWind from/ knotsBaromVisibWave heightAir tempDewpointWater temp
2014-Jul-31 08:22N 60°06' E 024°58'0 0.0
2014-Jul-31 07:05N 60°06' E 024°58'0 0.0
2014-Jul-31 06:23N 60°06' E 024°58'3 3.8
2014-Jul-31 05:34N 60°07' E 025°05'3 3.0
2014-Jul-31 04:29N 60°06' E 024°58'4 0.4
2014-Jul-30 18:33N 60°06' E 025°07'0 0.2
2014-Jul-30 17:34N 60°06' E 025°07'1 0.3
2014-Jul-30 15:19N 60°06' E 025°08'8 9.7
2014-Jul-30 14:32N 60°04' E 024°54'7 7.1
2014-Jul-30 13:33N 60°06' E 025°07'4 0.8
2014-Jul-30 08:24N 60°06' E 024°58'4 4.5
2014-Jul-30 07:33N 60°10' E 024°58'3 2.6
2014-Jul-30 06:34N 60°08' E 024°59'2 1.0
2014-Jul-30 04:32N 60°06' E 024°59'4 1.4
2014-Jul-30 01:32N 60°06' E 025°07'4 0.7
2014-Jul-29 19:17N 60°06' E 024°58'0 0.2
2014-Jul-29 16:18N 60°06' E 024°58'0 0.3
2014-Jul-29 15:25N 60°06' E 024°59'1 0.4
2014-Jul-29 12:34N 60°05' E 024°58'2 0.7
2014-Jul-29 10:04N 60°06' E 024°59'0 0.1
2014-Jul-29 06:21N 60°06' E 024°59'3 1.0
2014-Jul-29 03:33N 60°03' E 024°58'3 0.4
2014-Jul-28 20:32N 60°06' E 024°55'2 2.4
2014-Jul-28 19:31N 60°07' E 024°59'1 0.4
2014-Jul-28 18:12N 60°06' E 024°58'0 0.0
2014-Jul-28 17:33N 60°06' E 024°58'0 0.0
2014-Jul-28 16:24N 60°06' E 024°58'6 6.7
2014-Jul-28 15:33N 60°05' E 025°10'6 2.7
2014-Jul-28 13:30N 60°05' E 024°58'2 2.0
2014-Jul-28 12:32N 60°04' E 024°57'2 1.8
2014-Jul-28 11:34N 60°05' E 024°58'1 0.3
2014-Jul-28 07:05N 60°06' E 024°58'4 4.4
2014-Jul-28 06:13N 60°10' E 024°58'5 3.0
2014-Jul-28 04:34N 60°05' E 025°01'9 9.5
2014-Jul-28 03:34N 60°13' E 025°12'8 8.3
2014-Jul-28 02:33N 60°05' E 025°10'6 5.8
2014-Jul-28 01:33N 60°06' E 024°58'0 0.0
2014-Jul-28 00:32N 60°06' E 024°58'0 0.0
2014-Jul-27 23:33N 60°06' E 024°58'0 0.0
2014-Jul-27 19:33N 60°06' E 024°58'0 0.0
2014-Jul-27 18:33N 60°06' E 024°58'0 0.0
2014-Jul-27 17:29N 60°06' E 024°58'0 0.0
2014-Jul-27 16:33N 60°06' E 024°58'0 0.0
2014-Jul-27 15:33N 60°06' E 024°58'5 4.5
2014-Jul-27 14:33N 60°02' E 024°54'1 0.9
2014-Jul-27 13:33N 60°03' E 024°53'4 1.0
2014-Jul-27 09:33N 60°06' E 024°58'0 0.0
2014-Jul-27 08:09N 60°06' E 024°58'0 0.0
2014-Jul-27 05:04N 60°06' E 024°58'0 0.0
2014-Jul-27 04:32N 60°06' E 024°58'0 0.0
2014-Jul-27 03:33N 60°06' E 024°58'3 3.5
2014-Jul-27 02:34N 60°03' E 024°58'3 1.5
2014-Jul-27 00:11N 60°06' E 024°58'0 0.0
2014-Jul-26 23:30N 60°06' E 024°58'0 0.0
2014-Jul-26 21:21N 60°06' E 024°58'0 0.0
2014-Jul-26 20:34N 60°06' E 024°58'0 0.0
2014-Jul-26 19:05N 60°06' E 024°58'1 1.5
2014-Jul-26 18:33N 60°06' E 024°60'1 0.7
2014-Jul-26 17:18N 60°06' E 024°58'0 0.0
2014-Jul-26 15:31N 60°06' E 024°58'0 0.0
2014-Jul-26 14:33N 60°06' E 024°58'0 0.0
2014-Jul-26 13:33N 60°06' E 024°58'5 4.8
2014-Jul-26 12:33N 60°06' E 025°08'5 4.7
2014-Jul-26 11:33N 60°06' E 024°58'0 0.0
2014-Jul-26 10:33N 60°06' E 024°58'0 0.0
2014-Jul-26 09:33N 60°06' E 024°58'0 0.0
2014-Jul-26 08:33N 60°06' E 024°58'0 0.0
2014-Jul-26 07:28N 60°06' E 024°58'0 0.0
2014-Jul-26 06:31N 60°06' E 024°58'0 0.0
2014-Jul-26 04:19N 60°06' E 024°58'0 0.0
2014-Jul-26 03:22N 60°06' E 024°58'0 0.0
2014-Jul-26 02:29N 60°06' E 024°58'0 0.0
2014-Jul-26 01:20N 60°06' E 024°58'0 0.0
2014-Jul-25 23:07N 60°06' E 024°58'1 1.5
2014-Jul-25 22:32N 60°07' E 025°00'1 0.2
2014-Jul-25 18:31N 60°06' E 024°58'0 0.0
2014-Jul-25 17:26N 60°06' E 024°58'0 0.0
2014-Jul-25 16:32N 60°06' E 024°58'0 0.0
2014-Jul-25 15:33N 60°06' E 024°58'3 1.2
2014-Jul-25 13:28N 60°04' E 024°57'7 3.6
2014-Jul-25 11:33N 60°06' E 025°11'6 6.0
2014-Jul-25 10:33N 60°07' E 024°59'0 0.0
2014-Jul-25 07:30N 60°07' E 024°59'0 0.3
2014-Jul-25 06:05N 60°06' E 024°59'0 0.1
2014-Jul-25 04:22N 60°06' E 024°58'1 0.8
2014-Jul-25 03:33N 60°07' E 024°59'6 5.6
2014-Jul-25 02:33N 60°01' E 024°57'8 7.1
2014-Jul-25 01:30N 60°05' E 025°10'6 5.9
2014-Jul-25 00:30N 60°06' E 024°58'0 0.0
2014-Jul-24 23:30N 60°06' E 024°58'0 0.0
2014-Jul-24 22:33N 60°06' E 024°58'0 0.0
2014-Jul-24 21:33N 60°06' E 024°58'4 1.9
2014-Jul-24 19:33N 60°05' E 025°06'1 1.3
2014-Jul-24 18:33N 60°06' E 025°07'3 1.6
2014-Jul-24 16:33N 60°07' E 025°00'3 0.7
2014-Jul-24 12:33N 60°04' E 024°58'2 1.9
2014-Jul-24 11:33N 60°06' E 024°58'1 0.4
2014-Jul-24 10:16N 60°06' E 024°58'0 0.0
2014-Jul-24 06:11N 60°06' E 024°58'3 1.3
2014-Jul-24 03:33N 60°10' E 025°00'6 0.7
2014-Jul-23 19:33N 60°06' E 025°09'3 3.0
2014-Jul-23 18:33N 60°07' E 025°04'3 2.3
2014-Jul-23 17:26N 60°06' E 024°59'0 0.0
2014-Jul-23 15:25N 60°06' E 024°58'3 3.0
2014-Jul-23 14:34N 60°04' E 024°56'6 1.4
2014-Jul-23 10:33N 60°10' E 024°59'3 1.4
2014-Jul-23 08:18N 60°06' E 024°58'4 4.1
2014-Jul-23 07:21N 60°10' E 024°58'4 4.2
2014-Jul-23 06:23N 60°06' E 024°59'4 1.8
2014-Jul-23 04:21N 60°10' E 024°58'6 7.3
2014-Jul-23 03:32N 60°06' E 025°07'4 0.5
2014-Jul-22 18:20N 60°06' E 024°59'1 1.7
2014-Jul-22 17:33N 60°08' E 024°59'1 0.5
2014-Jul-22 14:33N 60°06' E 024°58'2 0.7
2014-Jul-22 11:33N 60°08' E 024°60'1 0.9
2014-Jul-22 10:33N 60°09' E 024°60'3 0.4
2014-Jul-22 04:12N 60°06' E 024°59'1 0.8
2014-Jul-22 03:33N 60°07' E 024°59'2 0.3
2014-Jul-21 19:33N 60°07' E 025°03'1 0.7
2014-Jul-21 18:08N 60°07' E 025°05'5 2.8
2014-Jul-21 16:17N 60°04' E 024°56'6 6.2
2014-Jul-21 15:20N 60°05' E 025°08'1 0.5
2014-Jul-21 13:33N 60°05' E 025°09'6 5.1
2014-Jul-21 12:27N 60°06' E 024°58'4 4.9
2014-Jul-21 11:33N 60°06' E 025°07'4 3.8
2014-Jul-21 10:24N 60°06' E 024°58'0 0.0
2014-Jul-21 09:30N 60°06' E 024°58'  

Dump ship's entire track history